Time;durP1;ratioP1;P1;durP2;ratioP2;P2;SDS_P1;SDS_P2;PMS_P1;PMS_P2;Temp;Humidity;BMP_temperature;BMP_pressure;BME280_temperature;BME280_humidity;BME280_pressure;Samples;Min_cycle;Max_cycle;Signal;HPM_P1;HPM_P2
2021/07/16 00:01:19;;;;;;;1.20;0.77;;;;;;;16.43;75.34;96252.69;5108654;28;20035;-73
2021/07/16 00:03:46;;;;;;;1.95;0.70;;;;;;;16.42;75.27;96248.38;5112888;28;20040;-73
2021/07/16 00:06:12;;;;;;;2.67;1.70;;;;;;;16.41;75.33;96241.28;5111931;28;20059;-73
2021/07/16 00:08:39;;;;;;;3.85;0.85;;;;;;;16.37;75.05;96251.38;5106614;28;20509;-73
2021/07/16 00:11:07;;;;;;;1.17;0.80;;;;;;;16.32;75.30;96254.41;5112562;28;20413;-73
2021/07/16 00:13:33;;;;;;;1.65;0.85;;;;;;;16.27;75.34;96257.44;5112767;28;20051;-73
2021/07/16 00:16:00;;;;;;;3.53;0.98;;;;;;;16.24;75.58;96249.91;5112483;28;20506;-73
2021/07/16 00:18:26;;;;;;;3.05;0.88;;;;;;;16.20;75.50;96257.28;5112047;28;20508;-73
2021/07/16 00:20:53;;;;;;;2.17;0.77;;;;;;;16.18;75.65;96248.56;5112528;28;20055;-73
2021/07/16 00:23:19;;;;;;;2.70;0.85;;;;;;;16.21;75.66;96244.34;5111947;28;20043;-73
2021/07/16 00:25:46;;;;;;;0.90;0.60;;;;;;;16.22;75.35;96243.16;5112236;28;20050;-73
2021/07/16 00:28:14;;;;;;;1.85;0.75;;;;;;;16.14;75.26;96242.22;5111723;28;20044;-73
2021/07/16 00:30:40;;;;;;;3.97;0.80;;;;;;;16.18;75.69;96245.81;5112469;28;20043;-73
2021/07/16 00:33:07;;;;;;;2.30;0.90;;;;;;;16.16;75.14;96250.91;5111823;28;20047;-73
2021/07/16 00:35:33;;;;;;;3.63;1.05;;;;;;;16.06;75.27;96240.44;5112268;28;20043;-73
2021/07/16 00:38:00;;;;;;;3.38;0.90;;;;;;;16.00;75.55;96247.38;5111830;28;20486;-73
2021/07/16 00:40:27;;;;;;;1.55;1.05;;;;;;;15.86;75.85;96253.28;5111719;28;20051;-73
2021/07/16 00:42:53;;;;;;;3.13;0.90;;;;;;;15.77;76.35;96250.75;5112167;28;20048;-73
2021/07/16 00:45:22;;;;;;;1.70;0.80;;;;;;;15.76;76.67;96253.81;5111419;28;20043;-73
2021/07/16 00:47:49;;;;;;;2.53;0.90;;;;;;;15.75;77.04;96254.97;5111299;28;20043;-73
2021/07/16 00:50:18;;;;;;;3.13;0.95;;;;;;;15.77;77.58;96269.97;5111580;28;20047;-73
2021/07/16 00:52:45;;;;;;;1.63;0.63;;;;;;;15.75;77.57;96264.00;5112099;28;20067;-73
2021/07/16 00:55:13;;;;;;;2.40;0.88;;;;;;;15.77;77.85;96266.44;5111459;28;20047;-72
2021/07/16 00:57:40;;;;;;;1.30;0.85;;;;;;;15.80;78.12;96265.69;5111910;28;20047;-73
2021/07/16 01:00:08;;;;;;;1.45;0.85;;;;;;;15.86;77.63;96265.06;5111479;28;20390;-72
2021/07/16 01:02:36;;;;;;;2.08;0.98;;;;;;;15.91;77.28;96275.78;5111679;28;20051;-73
2021/07/16 01:05:04;;;;;;;1.35;0.88;;;;;;;15.91;77.56;96264.81;5111360;28;20047;-72
2021/07/16 01:07:30;;;;;;;2.65;0.95;;;;;;;15.96;76.81;96274.72;5111403;28;20040;-73
2021/07/16 01:09:58;;;;;;;2.58;0.80;;;;;;;15.98;76.54;96266.16;5111847;28;20055;-73
2021/07/16 01:12:26;;;;;;;2.05;1.10;;;;;;;15.98;77.02;96266.97;5111106;28;20100;-73
2021/07/16 01:14:53;;;;;;;1.95;0.93;;;;;;;15.99;77.15;96262.25;5111418;28;20051;-74
2021/07/16 01:17:20;;;;;;;1.52;0.70;;;;;;;15.98;77.70;96266.97;5111054;28;20054;-73
2021/07/16 01:19:56;;;;;;;1.80;0.90;;;;;;;15.98;77.48;96266.16;5111529;28;20047;-73
2021/07/16 01:22:26;;;;;;;1.25;0.80;;;;;;;16.01;77.81;96262.69;5111275;28;20055;-73
2021/07/16 01:24:55;;;;;;;1.17;0.75;;;;;;;16.04;77.63;96248.25;5111327;28;20054;-73
2021/07/16 01:27:22;;;;;;;2.58;1.08;;;;;;;16.09;77.18;96256.22;5111009;28;20129;-73
2021/07/16 01:29:50;;;;;;;1.70;0.80;;;;;;;16.12;76.89;96258.25;5111505;28;20040;-73
2021/07/16 01:32:17;;;;;;;1.63;0.77;;;;;;;16.14;77.21;96259.50;5110849;28;20058;-73
2021/07/16 01:34:44;;;;;;;4.57;0.82;;;;;;;16.17;77.56;96260.72;5111502;28;20039;-73
2021/07/16 01:37:11;;;;;;;2.58;1.20;;;;;;;16.22;77.41;96254.16;5110563;28;20048;-73
2021/07/16 01:39:39;;;;;;;2.65;1.02;;;;;;;16.26;76.67;96255.84;5090810;28;20047;-73
2021/07/16 01:42:09;;;;;;;2.20;1.00;;;;;;;16.32;76.58;96259.13;5090518;28;20044;-72
2021/07/16 01:44:38;;;;;;;2.65;1.10;;;;;;;16.32;76.20;96253.63;5093713;28;20039;-73
2021/07/16 01:47:05;;;;;;;1.50;1.00;;;;;;;16.33;76.71;96256.00;5110861;28;20054;-73
2021/07/16 01:49:32;;;;;;;3.08;1.23;;;;;;;16.34;76.69;96254.03;5111180;28;20035;-73
2021/07/16 01:51:59;;;;;;;1.52;0.90;;;;;;;16.34;76.87;96252.13;5111073;28;20429;-74
2021/07/16 01:54:25;;;;;;;2.03;0.90;;;;;;;16.32;76.85;96259.91;5110481;28;20512;-73
2021/07/16 01:56:52;;;;;;;2.05;0.80;;;;;;;16.30;76.56;96251.25;5111290;28;20048;-73
2021/07/16 01:59:20;;;;;;;3.10;1.33;;;;;;;16.30;76.54;96255.94;5111981;28;20409;-73
2021/07/16 02:01:46;;;;;;;2.08;1.10;;;;;;;16.30;76.77;96253.19;5115306;28;20493;-73
2021/07/16 02:04:13;;;;;;;3.30;0.90;;;;;;;16.29;76.69;96249.66;5114798;28;20272;-73
2021/07/16 02:06:39;;;;;;;4.95;1.20;;;;;;;16.31;76.84;96252.81;5115091;28;20055;-73
2021/07/16 02:09:07;;;;;;;4.45;1.20;;;;;;;16.33;77.25;96250.50;5114530;28;20444;-73
2021/07/16 02:11:35;;;;;;;1.90;1.00;;;;;;;16.33;77.30;96247.75;5115220;28;20052;-73
2021/07/16 02:14:01;;;;;;;2.83;1.05;;;;;;;16.30;77.09;96251.25;5115074;28;20550;-73
2021/07/16 02:16:29;;;;;;;6.20;1.10;;;;;;;16.29;76.51;96249.66;5114711;28;20063;-73
2021/07/16 02:18:56;;;;;;;2.38;0.90;;;;;;;16.21;76.45;96242.38;5115027;28;20048;-73
2021/07/16 02:21:23;;;;;;;4.93;1.08;;;;;;;16.23;76.12;96237.31;5114607;28;20058;-74
2021/07/16 02:23:50;;;;;;;2.63;1.08;;;;;;;16.22;75.85;96243.97;5114946;28;20060;-73
2021/07/16 02:26:16;;;;;;;3.67;1.00;;;;;;;16.17;76.12;96238.75;5114169;28;20039;-73
2021/07/16 02:28:44;;;;;;;2.70;0.70;;;;;;;16.14;76.62;96250.47;5114769;28;20043;-73
2021/07/16 02:31:12;;;;;;;1.45;0.98;;;;;;;16.09;76.77;96242.50;5114141;28;20516;-72
2021/07/16 02:33:41;;;;;;;1.98;0.90;;;;;;;16.09;77.17;96246.03;5114901;28;20516;-73
2021/07/16 02:36:10;;;;;;;1.90;1.08;;;;;;;16.10;77.51;96246.81;5114075;28;20047;-73
2021/07/16 02:38:36;;;;;;;1.83;0.90;;;;;;;16.13;77.27;96251.59;5114286;28;20043;-73
2021/07/16 02:41:03;;;;;;;2.10;1.10;;;;;;;16.14;77.60;96253.22;5114170;28;20047;-71
2021/07/16 02:43:29;;;;;;;3.63;1.23;;;;;;;16.14;77.86;96250.47;5114556;28;20047;-72
2021/07/16 02:45:56;;;;;;;2.17;1.10;;;;;;;16.19;77.36;96250.19;5114489;28;20036;-73
2021/07/16 02:48:22;;;;;;;2.55;1.30;;;;;;;16.23;77.00;96251.06;5114013;28;20059;-73
2021/07/16 02:50:51;;;;;;;4.35;1.10;;;;;;;16.20;76.25;96251.78;5114370;28;20050;-73
2021/07/16 02:53:20;;;;;;;2.78;1.30;;;;;;;16.19;76.39;96255.69;5113742;28;20048;-72
2021/07/16 02:55:47;;;;;;;5.03;1.30;;;;;;;16.16;76.54;96256.38;5114224;28;20126;-76
2021/07/16 02:58:15;;;;;;;3.30;1.20;;;;;;;16.11;76.55;96256.66;5113624;28;20497;-72
2021/07/16 03:00:41;;;;;;;3.70;1.25;;;;;;;16.04;77.17;96256.50;5114203;28;20050;-73
2021/07/16 03:03:08;;;;;;;1.33;0.95;;;;;;;16.02;77.66;96267.03;5113556;28;20044;-73
2021/07/16 03:05:37;;;;;;;2.72;0.95;;;;;;;15.97;77.17;96261.78;5114148;28;20066;-73
2021/07/16 03:08:06;;;;;;;1.58;1.05;;;;;;;15.94;77.28;96259.78;5113320;28;20048;-73
2021/07/16 03:10:35;;;;;;;5.35;1.30;;;;;;;15.94;77.68;96276.25;5113165;28;20051;-74
2021/07/16 03:13:04;;;;;;;4.95;1.40;;;;;;;15.88;77.74;96268.28;5113884;28;20040;-75
2021/07/16 03:15:31;;;;;;;1.35;0.85;;;;;;;15.82;77.81;96266.16;5113680;28;20050;-74
2021/07/16 03:17:58;;;;;;;4.10;1.40;;;;;;;15.77;78.25;96269.97;5113641;28;20063;-74
2021/07/16 03:20:27;;;;;;;4.78;1.10;;;;;;;15.77;78.50;96269.97;5113416;28;20043;-75
2021/07/16 03:22:54;;;;;;;3.17;1.00;;;;;;;15.78;78.68;96273.50;5113696;28;20048;-75
2021/07/16 03:25:23;;;;;;;6.75;1.48;;;;;;;15.76;78.77;96268.34;5113018;28;20056;-74
2021/07/16 03:27:50;;;;;;;4.55;1.02;;;;;;;15.77;79.18;96272.72;5113769;28;20047;-75
2021/07/16 03:30:19;;;;;;;4.82;1.02;;;;;;;15.75;78.98;96277.75;5112955;28;20417;-74
2021/07/16 03:32:46;;;;;;;4.07;1.63;;;;;;;15.78;78.82;96279.78;5113536;28;20050;-74
2021/07/16 03:35:14;;;;;;;4.00;1.30;;;;;;;15.84;78.46;96278.38;5113040;28;20048;-75
2021/07/16 03:37:41;;;;;;;5.22;1.42;;;;;;;15.84;78.35;96283.06;5113291;28;20062;-75
2021/07/16 03:40:11;;;;;;;1.67;1.02;;;;;;;15.86;78.34;96280.75;5112903;28;20044;-74
2021/07/16 03:42:39;;;;;;;3.20;1.05;;;;;;;15.85;78.45;96279.97;5113462;28;20039;-75
2021/07/16 03:45:12;;;;;;;3.75;1.13;;;;;;;15.88;78.24;96279.25;5112981;28;20047;-74
2021/07/16 03:47:38;;;;;;;2.50;1.35;;;;;;;15.88;78.30;96278.47;5113371;28;20039;-73
2021/07/16 03:50:06;;;;;;;5.45;1.42;;;;;;;15.90;78.53;96287.13;5112819;28;20048;-74
2021/07/16 03:52:32;;;;;;;5.63;1.50;;;;;;;15.89;78.56;96291.84;5113148;28;20039;-74
2021/07/16 03:54:59;;;;;;;3.75;1.40;;;;;;;15.91;78.31;96289.53;5113149;28;20489;-75
2021/07/16 03:57:25;;;;;;;3.47;1.33;;;;;;;15.94;77.33;96282.53;5112533;28;20039;-75
2021/07/16 03:59:54;;;;;;;3.40;1.00;;;;;;;15.90;77.18;96287.13;5112984;28;20050;-74
2021/07/16 04:02:21;;;;;;;3.28;1.23;;;;;;;15.87;77.55;96288.66;5112537;28;20040;-74
2021/07/16 04:04:51;;;;;;;3.63;1.25;;;;;;;15.86;77.70;96287.03;5112884;28;20039;-75
2021/07/16 04:07:22;;;;;;;3.75;1.30;;;;;;;15.85;77.29;96290.94;5111175;28;20127;-74
2021/07/16 04:09:48;;;;;;;1.50;1.00;;;;;;;15.78;77.34;96290.78;5112416;28;20081;-75
2021/07/16 04:12:18;;;;;;;4.65;1.40;;;;;;;15.78;77.76;96299.00;5112187;28;20048;-74
2021/07/16 04:14:46;;;;;;;4.03;1.17;;;;;;;15.74;78.09;96300.84;5112719;28;20134;-75
2021/07/16 04:17:17;;;;;;;3.50;1.30;;;;;;;15.75;78.31;96302.44;5112350;28;20071;-74
2021/07/16 04:19:44;;;;;;;1.50;1.10;;;;;;;15.79;77.95;96297.84;5112810;28;20426;-75
2021/07/16 04:22:12;;;;;;;5.20;1.58;;;;;;;15.77;77.56;96305.66;5112228;28;20040;-74
2021/07/16 04:24:40;;;;;;;2.80;1.10;;;;;;;15.75;77.41;96307.16;5112263;28;20513;-74
2021/07/16 04:27:08;;;;;;;4.15;1.45;;;;;;;15.73;77.43;96313.00;5112111;28;20066;-78
2021/07/16 04:29:36;;;;;;;4.07;1.70;;;;;;;15.68;77.53;96318.75;5112465;28;20058;-75
2021/07/16 04:32:04;;;;;;;4.00;1.55;;;;;;;15.67;77.11;96317.16;5111924;28;20498;-73
2021/07/16 04:34:32;;;;;;;4.43;1.40;;;;;;;15.64;77.65;96317.84;5112442;28;20051;-74
2021/07/16 04:37:00;;;;;;;4.50;1.40;;;;;;;15.57;77.64;96323.13;5112224;28;20044;-75
2021/07/16 04:39:27;;;;;;;2.25;1.38;;;;;;;15.51;77.71;96325.31;5111711;28;20066;-75
2021/07/16 04:41:54;;;;;;;7.00;1.85;;;;;;;15.47;78.32;96334.59;5112164;28;20502;-75
2021/07/16 04:44:21;;;;;;;4.00;1.60;;;;;;;15.47;78.23;96332.66;5111441;28;20047;-75
2021/07/16 04:46:48;;;;;;;4.97;1.50;;;;;;;15.46;78.71;96333.00;5112096;28;20035;-74
2021/07/16 04:49:14;;;;;;;4.32;1.40;;;;;;;15.47;79.29;96335.41;5111672;28;20063;-74
2021/07/16 04:51:43;;;;;;;5.65;1.45;;;;;;;15.50;79.63;96339.38;5111961;28;20043;-75
2021/07/16 04:54:10;;;;;;;2.42;1.17;;;;;;;15.49;80.21;96335.84;5111491;28;20051;-74
2021/07/16 04:56:36;;;;;;;2.63;1.50;;;;;;;15.55;79.99;96341.88;5112090;28;20104;-75
2021/07/16 04:59:04;;;;;;;4.47;1.48;;;;;;;15.62;79.87;96348.38;5111436;28;20051;-71
2021/07/16 05:01:31;;;;;;;5.00;1.63;;;;;;;15.65;79.78;96341.38;5111872;28;20047;-72
2021/07/16 05:03:57;;;;;;;2.50;1.40;;;;;;;15.65;80.02;96342.19;5111877;28;20046;-73
2021/07/16 05:06:24;;;;;;;4.65;1.80;;;;;;;15.72;80.23;96344.34;5111366;28;20044;-72
2021/07/16 05:08:54;;;;;;;7.97;1.75;;;;;;;15.78;80.27;96337.44;5111714;28;20039;-72
2021/07/16 05:11:21;;;;;;;5.78;1.85;;;;;;;15.85;80.52;96340.38;5111250;28;20043;-72
2021/07/16 05:13:48;;;;;;;3.90;1.52;;;;;;;15.91;80.82;96338.16;5111770;28;20039;-75
2021/07/16 05:16:15;;;;;;;5.78;1.80;;;;;;;15.96;80.83;96337.91;5111219;28;20050;-74
2021/07/16 05:18:43;;;;;;;2.70;1.40;;;;;;;16.00;80.70;96341.53;5111168;28;20051;-73
2021/07/16 05:21:11;;;;;;;3.28;1.55;;;;;;;16.01;80.30;96336.84;5111171;28;20052;-73
2021/07/16 05:23:37;;;;;;;4.93;1.83;;;;;;;16.03;80.07;96335.34;5111512;28;20047;-73
2021/07/16 05:26:05;;;;;;;5.88;1.40;;;;;;;16.06;79.92;96339.31;5111101;28;20047;-72
2021/07/16 05:28:32;;;;;;;8.73;1.60;;;;;;;16.04;79.45;96341.66;5111691;28;20040;-73
2021/07/16 05:30:58;;;;;;;8.13;1.88;;;;;;;16.06;79.44;96344.81;5111329;28;20489;-73
2021/07/16 05:33:25;;;;;;;7.47;1.65;;;;;;;16.12;79.27;96346.16;5110514;28;20047;-73
2021/07/16 05:35:52;;;;;;;3.85;1.58;;;;;;;16.14;79.43;96343.88;5111326;28;20040;-73
2021/07/16 05:38:21;;;;;;;5.28;1.40;;;;;;;16.19;79.36;96340.84;5110616;28;20050;-73
2021/07/16 05:40:48;;;;;;;9.68;1.88;;;;;;;16.17;79.71;96340.41;5111298;28;20093;-73
2021/07/16 05:43:16;;;;;;;3.38;1.40;;;;;;;16.23;79.75;96336.22;5110743;28;20131;-73
2021/07/16 05:45:43;;;;;;;5.88;1.55;;;;;;;16.28;79.47;96341.44;5111132;28;20046;-73
2021/07/16 05:48:11;;;;;;;4.03;1.45;;;;;;;16.28;79.73;96335.94;5110867;28;20055;-73
2021/07/16 05:50:38;;;;;;;7.68;1.58;;;;;;;16.33;79.30;96332.94;5111358;28;20044;-73
2021/07/16 05:53:05;;;;;;;6.90;1.88;;;;;;;16.39;79.28;96334.28;5110601;28;20047;-72
2021/07/16 05:55:32;;;;;;;3.97;1.52;;;;;;;16.48;79.63;96333.28;5111462;28;20043;-74
2021/07/16 05:57:58;;;;;;;3.17;1.40;;;;;;;16.50;79.64;96342.00;5111190;28;20494;-73
2021/07/16 06:00:27;;;;;;;4.13;1.58;;;;;;;16.53;79.74;96352.25;5110591;28;20047;-73
2021/07/16 06:02:53;;;;;;;5.72;1.73;;;;;;;16.58;79.62;96357.50;5111234;28;20417;-73
2021/07/16 06:05:20;;;;;;;2.85;1.33;;;;;;;16.63;79.13;96358.00;5110495;28;20044;-73
2021/07/16 06:07:46;;;;;;;2.90;1.55;;;;;;;16.70;77.75;96357.38;5110890;28;20059;-73
2021/07/16 06:10:14;;;;;;;3.45;1.50;;;;;;;16.74;78.32;96341.78;5110595;28;20067;-73
2021/07/16 06:12:40;;;;;;;3.92;1.38;;;;;;;16.82;78.48;96348.25;5111176;28;20048;-73
2021/07/16 06:15:08;;;;;;;4.13;1.67;;;;;;;16.87;78.56;96356.25;5110653;28;20070;-73
2021/07/16 06:17:36;;;;;;;3.17;1.65;;;;;;;16.87;78.54;96351.53;5111125;28;20047;-73
2021/07/16 06:20:07;;;;;;;3.17;1.50;;;;;;;16.98;77.73;96351.78;5110580;28;20047;-72
2021/07/16 06:22:34;;;;;;;3.25;1.85;;;;;;;17.04;77.24;96361.34;5111048;28;20050;-73
2021/07/16 06:25:00;;;;;;;3.22;1.55;;;;;;;17.05;75.44;96367.63;5110768;28;20410;-73
2021/07/16 06:27:27;;;;;;;4.28;1.65;;;;;;;17.04;75.86;96361.34;5110836;28;20044;-73
2021/07/16 06:29:54;;;;;;;3.05;1.92;;;;;;;17.08;76.39;96366.91;5110851;28;20050;-73
2021/07/16 06:32:20;;;;;;;2.63;1.50;;;;;;;17.07;76.66;96370.81;5110545;28;20043;-73
2021/07/16 06:34:48;;;;;;;2.88;1.55;;;;;;;17.08;76.60;96375.19;5110772;28;20410;-73
2021/07/16 06:37:15;;;;;;;2.10;1.50;;;;;;;17.11;76.46;96374.44;5110254;28;20058;-73
2021/07/16 06:39:41;;;;;;;5.78;2.70;;;;;;;17.19;76.97;96378.94;5110614;28;20405;-73
2021/07/16 06:42:08;;;;;;;4.50;1.90;;;;;;;17.22;76.62;96372.72;5110285;28;20040;-74
2021/07/16 06:44:35;;;;;;;7.78;2.53;;;;;;;17.26;77.16;96389.31;5110640;28;20438;-74
2021/07/16 06:47:01;;;;;;;5.43;2.28;;;;;;;17.23;77.39;96385.34;5113180;28;20051;-73
2021/07/16 06:49:28;;;;;;;8.00;2.25;;;;;;;17.30;77.42;96390.19;5114256;28;20564;-73
2021/07/16 06:51:57;;;;;;;8.85;2.22;;;;;;;17.40;77.68;96393.16;5114465;28;20416;-74
2021/07/16 06:54:24;;;;;;;7.00;2.00;;;;;;;17.47;77.97;96392.50;5113836;28;20066;-73
2021/07/16 06:56:50;;;;;;;5.55;2.53;;;;;;;17.57;77.72;96393.91;5114402;28;20051;-73
2021/07/16 06:59:17;;;;;;;3.63;1.90;;;;;;;17.64;77.45;96399.53;5113778;28;20052;-73
2021/07/16 07:01:43;;;;;;;4.72;2.10;;;;;;;17.71;77.47;96402.47;5114204;28;20043;-74
2021/07/16 07:04:10;;;;;;;4.80;2.30;;;;;;;17.77;77.02;96409.28;5113809;28;20059;-73
2021/07/16 07:06:37;;;;;;;4.57;2.08;;;;;;;17.82;76.88;96411.75;5114176;28;20051;-74
2021/07/16 07:09:04;;;;;;;3.75;1.95;;;;;;;17.86;75.90;96406.31;5113529;28;20043;-73
2021/07/16 07:11:31;;;;;;;3.20;2.05;;;;;;;17.91;75.67;96408.78;5114153;28;20039;-73
2021/07/16 07:13:58;;;;;;;3.92;2.00;;;;;;;17.97;73.53;96410.88;5113981;28;20414;-73
2021/07/16 07:16:24;;;;;;;3.70;2.03;;;;;;;18.04;74.21;96423.19;5113566;28;20043;-74
2021/07/16 07:18:51;;;;;;;3.97;2.03;;;;;;;18.02;73.57;96418.06;5113904;28;20054;-74
2021/07/16 07:21:17;;;;;;;3.00;1.63;;;;;;;18.06;73.84;96420.84;5113347;28;20050;-74
2021/07/16 07:23:44;;;;;;;5.25;2.40;;;;;;;18.10;74.44;96432.75;5113939;28;20051;-73
2021/07/16 07:26:12;;;;;;;4.47;2.17;;;;;;;18.12;74.01;96427.69;5113108;28;20059;-73
2021/07/16 07:28:39;;;;;;;6.10;2.40;;;;;;;18.17;73.97;96438.41;5113684;28;20043;-73
2021/07/16 07:31:06;;;;;;;4.20;1.83;;;;;;;18.19;71.33;96436.06;5113280;28;20040;-73
2021/07/16 07:33:32;;;;;;;4.25;2.08;;;;;;;18.29;71.76;96446.50;5113616;28;20051;-74
2021/07/16 07:35:59;;;;;;;5.35;2.00;;;;;;;18.21;70.52;96445.56;5113616;28;20047;-73
2021/07/16 07:38:26;;;;;;;4.07;1.80;;;;;;;18.17;71.53;96444.72;5113047;28;20035;-74
2021/07/16 07:40:53;;;;;;;3.20;2.13;;;;;;;18.27;71.74;96448.84;5113506;28;20126;-74
2021/07/16 07:43:21;;;;;;;4.38;1.80;;;;;;;18.30;71.12;96439.81;5112927;28;20054;-74
2021/07/16 07:45:47;;;;;;;3.35;1.42;;;;;;;18.34;72.48;96443.44;5113430;28;20044;-73
2021/07/16 07:48:14;;;;;;;4.10;2.10;;;;;;;18.38;72.79;96451.78;5112768;28;20040;-73
2021/07/16 07:50:40;;;;;;;3.17;1.98;;;;;;;18.39;72.46;96450.63;5113224;28;20036;-74
2021/07/16 07:53:07;;;;;;;2.80;2.00;;;;;;;18.35;71.63;96456.06;5112790;28;20066;-73
2021/07/16 07:55:34;;;;;;;3.30;2.08;;;;;;;18.36;71.40;96457.66;5113125;28;20055;-74
2021/07/16 07:58:01;;;;;;;2.53;1.83;;;;;;;18.43;71.16;96457.00;5112946;28;20044;-73
2021/07/16 08:00:28;;;;;;;3.13;2.13;;;;;;;18.37;72.01;96453.72;5112515;28;20043;-74
2021/07/16 08:02:56;;;;;;;4.60;1.85;;;;;;;18.37;71.74;96452.94;5113128;28;20051;-73
2021/07/16 08:05:23;;;;;;;4.95;2.03;;;;;;;18.33;72.42;96463.91;5112449;28;20054;-74
2021/07/16 08:07:49;;;;;;;3.33;1.95;;;;;;;18.29;72.66;96454.78;5112657;28;20043;-73
2021/07/16 08:10:18;;;;;;;5.95;2.00;;;;;;;18.37;72.92;96453.72;5112385;28;20063;-73
2021/07/16 08:12:45;;;;;;;5.38;2.05;;;;;;;18.57;73.42;96456.44;5112878;28;20039;-73
2021/07/16 08:15:13;;;;;;;3.78;1.70;;;;;;;18.68;72.82;96444.44;5112293;28;20530;-73
2021/07/16 08:17:41;;;;;;;4.50;2.10;;;;;;;18.75;71.89;96447.34;5112706;28;20486;-74
2021/07/16 08:20:10;;;;;;;2.90;1.90;;;;;;;18.82;69.45;96452.19;5112151;28;20047;-73
2021/07/16 08:22:36;;;;;;;2.55;1.73;;;;;;;18.73;69.29;96454.38;5112710;28;20039;-73
2021/07/16 08:25:05;;;;;;;3.17;1.70;;;;;;;18.86;70.03;96450.28;5111996;28;20078;-73
2021/07/16 08:27:32;;;;;;;3.65;1.67;;;;;;;19.22;67.00;96443.34;5112668;28;20051;-73
2021/07/16 08:29:58;;;;;;;4.55;1.88;;;;;;;19.40;66.35;96446.38;5112575;28;20054;-74
2021/07/16 08:32:25;;;;;;;5.70;1.85;;;;;;;19.64;67.04;96455.41;5111956;28;20047;-73
2021/07/16 08:34:53;;;;;;;2.42;1.80;;;;;;;19.70;68.65;96456.69;5112415;28;20051;-74
2021/07/16 08:37:19;;;;;;;4.28;2.70;;;;;;;19.78;69.02;96463.88;5111878;28;20059;-73
2021/07/16 08:39:45;;;;;;;3.47;1.75;;;;;;;19.79;67.30;96465.47;5112396;28;20046;-73
2021/07/16 08:42:14;;;;;;;3.22;1.40;;;;;;;19.91;67.23;96456.94;5093728;28;20044;-73
2021/07/16 08:44:44;;;;;;;1.85;1.27;;;;;;;20.04;68.72;96466.56;5112269;28;20375;-73
2021/07/16 08:47:11;;;;;;;6.88;1.70;;;;;;;19.90;64.67;96471.94;5111735;28;20132;-74
2021/07/16 08:49:39;;;;;;;2.33;1.80;;;;;;;19.66;66.03;96464.91;5112209;28;20051;-73
2021/07/16 08:52:08;;;;;;;3.03;1.55;;;;;;;19.77;67.44;96467.81;5111594;28;20517;-73
2021/07/16 08:54:38;;;;;;;3.13;1.85;;;;;;;20.07;67.14;96465.81;5112132;28;20060;-73
2021/07/16 08:57:06;;;;;;;2.38;1.38;;;;;;;20.40;66.95;96472.50;5111650;28;20044;-73
2021/07/16 08:59:32;;;;;;;3.53;1.40;;;;;;;20.69;64.17;96472.84;5111973;28;20397;-73
2021/07/16 09:02:01;;;;;;;3.42;1.30;;;;;;;21.02;63.29;96475.50;5111823;28;20051;-74
2021/07/16 09:04:28;;;;;;;5.38;1.50;;;;;;;21.14;63.87;96479.94;5111612;28;20405;-75
2021/07/16 09:06:57;;;;;;;4.47;1.58;;;;;;;20.83;61.68;96472.97;5111740;28;20044;-73
2021/07/16 09:09:26;;;;;;;2.53;1.50;;;;;;;20.45;62.61;96469.41;5110658;28;20039;-73
2021/07/16 09:11:54;;;;;;;2.92;1.50;;;;;;;20.25;64.91;96470.75;5111715;28;20051;-75
2021/07/16 09:14:22;;;;;;;2.85;1.63;;;;;;;20.18;66.31;96470.69;5111283;28;20058;-73
2021/07/16 09:17:01;;;;;;;6.18;2.30;;;;;;;20.16;65.50;96456.44;5111533;28;20098;-73
2021/07/16 09:19:33;;;;;;;2.13;1.65;;;;;;;20.24;66.50;96463.63;5111362;28;20067;-73
2021/07/16 09:22:10;;;;;;;4.47;2.53;;;;;;;20.35;67.08;96459.00;5111588;28;20047;-73
2021/07/16 09:24:39;;;;;;;3.72;2.33;;;;;;;20.64;68.92;96459.34;5111364;28;20089;-73
2021/07/16 09:27:31;;;;;;;3.25;1.70;;;;;;;20.72;63.67;96461.00;5110913;28;20092;-74
2021/07/16 09:30:13;;;;;;;2.22;1.80;;;;;;;20.55;62.58;96457.69;5103236;28;20131;-75
2021/07/16 09:32:40;;;;;;;1.95;1.20;;;;;;;20.48;63.85;96463.16;5111270;28;20119;-75
2021/07/16 09:35:08;;;;;;;3.88;1.98;;;;;;;20.61;69.60;96462.88;5111040;28;20051;-74
2021/07/16 09:37:47;;;;;;;3.85;1.70;;;;;;;20.87;64.19;96468.25;5111349;28;20035;-75
2021/07/16 09:40:20;;;;;;;2.53;1.90;;;;;;;20.71;61.68;96470.47;5110786;28;20168;-74
2021/07/16 09:42:47;;;;;;;;;;;;;;;20.78;63.22;96465.81;5111706;28;20042;-75
2021/07/16 09:45:15;;;;;;;2.53;1.33;;;;;;;21.07;63.97;96472.38;5110679;28;19920;-73
2021/07/16 09:47:41;;;;;;;4.13;2.67;;;;;;;21.19;61.30;96459.41;5111178;28;20032;-75
2021/07/16 09:50:11;;;;;;;3.60;1.50;;;;;;;21.14;61.49;96460.53;5110854;28;20048;-74
2021/07/16 09:52:38;;;;;;;3.25;1.50;;;;;;;21.34;64.38;96452.81;5111242;28;20047;-75
2021/07/16 09:55:09;;;;;;;1.70;1.20;;;;;;;21.62;64.95;96464.09;5110815;28;20035;-74
2021/07/16 09:57:45;;;;;;;1.95;1.48;;;;;;;21.88;62.71;96445.59;5111136;28;20054;-73
2021/07/16 10:00:16;;;;;;;6.57;1.88;;;;;;;22.12;59.08;96453.25;5110640;28;20056;-73
2021/07/16 10:02:45;;;;;;;2.45;1.45;;;;;;;22.31;60.88;96443.00;5111262;28;20044;-73
2021/07/16 10:05:12;;;;;;;1.85;1.30;;;;;;;22.27;59.47;96436.66;5110795;28;20505;-73
2021/07/16 10:07:39;;;;;;;4.22;1.20;;;;;;;22.28;61.43;96446.56;5111102;28;20047;-74
2021/07/16 10:10:06;;;;;;;1.17;1.08;;;;;;;22.46;58.70;96444.63;5110684;28;20036;-74
2021/07/16 10:12:33;;;;;;;3.22;1.20;;;;;;;22.55;58.06;96447.81;5111199;28;20047;-74
2021/07/16 10:15:01;;;;;;;1.55;1.30;;;;;;;22.35;56.27;96444.59;5110927;28;20063;-73
2021/07/16 10:17:29;;;;;;;3.78;1.10;;;;;;;22.32;59.10;96450.13;5110895;28;20062;-74
2021/07/16 10:19:55;;;;;;;2.25;1.33;;;;;;;22.47;58.66;96446.22;5111709;28;20517;-73
2021/07/16 10:22:22;;;;;;;3.75;1.73;;;;;;;22.60;59.35;96449.41;5114381;28;20127;-75
2021/07/16 10:24:49;;;;;;;6.82;1.90;;;;;;;22.54;60.40;96451.75;5114594;28;20047;-73
2021/07/16 10:27:15;;;;;;;2.33;1.25;;;;;;;22.62;62.67;96442.28;5114530;28;20054;-73
2021/07/16 10:29:45;;;;;;;5.63;1.67;;;;;;;22.75;55.33;96450.22;5114838;28;20044;-73
2021/07/16 10:32:43;;;;;;;3.78;1.90;;;;;;;22.70;54.49;96447.81;5114196;28;20047;-72
2021/07/16 10:35:21;;;;;;;2.60;1.45;;;;;;;22.79;56.97;96440.69;5114217;28;20055;-75
2021/07/16 10:37:49;;;;;;;3.10;0.90;;;;;;;22.81;57.74;96443.06;5114780;28;20039;-73
2021/07/16 10:40:36;;;;;;;3.80;1.40;;;;;;;22.90;60.94;96435.19;5114041;28;20436;-73
2021/07/16 10:43:04;;;;;;;4.00;1.10;;;;;;;22.98;57.69;96438.78;5114155;28;20047;-72
2021/07/16 10:45:32;;;;;;;4.43;1.60;;;;;;;22.96;57.92;96441.13;5114411;28;20039;-72
2021/07/16 10:48:17;;;;;;;2.70;1.35;;;;;;;22.95;56.84;96432.00;5114456;28;20071;-74
2021/07/16 10:50:45;;;;;;;3.08;1.45;;;;;;;23.08;58.77;96429.63;5114343;28;20417;-74
2021/07/16 10:53:38;;;;;;;3.63;1.40;;;;;;;23.25;56.58;96422.47;5113835;28;20044;-74
2021/07/16 10:56:09;;;;;;;3.42;1.17;;;;;;;23.43;59.78;96418.44;5113891;28;20047;-73
2021/07/16 10:58:49;;;;;;;3.67;1.30;;;;;;;23.38;52.58;96426.41;5114419;28;20071;-74
2021/07/16 11:01:30;;;;;;;2.78;1.35;;;;;;;23.35;54.35;96422.47;5113629;28;20564;-74
2021/07/16 11:04:01;;;;;;;2.33;1.17;;;;;;;23.42;55.40;96424.41;5114119;28;20081;-74
2021/07/16 11:06:51;;;;;;;2.78;1.40;;;;;;;23.43;56.40;96428.78;5113886;28;20043;-74
2021/07/16 11:09:36;;;;;;;2.00;1.08;;;;;;;23.51;56.31;96433.13;5093345;28;20047;-74
2021/07/16 11:12:20;;;;;;;3.78;1.17;;;;;;;23.49;54.50;96429.16;5092226;28;20048;-72
2021/07/16 11:14:46;;;;;;;2.92;1.55;;;;;;;23.56;54.61;96432.72;5097959;28;20039;-74
2021/07/16 11:17:26;;;;;;;4.88;1.58;;;;;;;23.59;52.09;96434.69;5113384;28;20047;-74
2021/07/16 11:20:15;;;;;;;3.47;0.85;;;;;;;23.49;49.88;96429.97;5113662;28;20044;-74
2021/07/16 11:23:03;;;;;;;3.15;1.50;;;;;;;23.43;55.09;96424.00;5113529;28;20046;-74
2021/07/16 11:25:31;;;;;;;2.15;1.00;;;;;;;23.33;51.75;96424.03;5113384;28;20043;-74
2021/07/16 11:27:58;;;;;;;2.53;1.20;;;;;;;23.28;50.78;96422.44;5113400;28;20050;-74
2021/07/16 11:30:25;;;;;;;2.97;1.25;;;;;;;23.26;52.41;96429.63;5112975;28;20406;-73
2021/07/16 11:32:52;;;;;;;2.58;1.17;;;;;;;23.22;52.31;96426.03;5112815;28;20043;-73
2021/07/16 11:35:20;;;;;;;3.65;1.40;;;;;;;23.40;54.13;96424.03;5112952;28;20405;-73
2021/07/16 11:37:49;;;;;;;3.83;1.55;;;;;;;23.44;55.48;96419.28;5112862;28;20505;-73
2021/07/16 11:40:18;;;;;;;3.30;1.25;;;;;;;23.50;54.53;96419.66;5113031;28;20039;-74